sensor_id;sensor_type;location;lat;lon;timestamp;noise_LAeq;noise_LA_min;noise_LA_max;noise_LA01;noise_LA95
47109;Laerm;32856;51.422;6.794;2023-02-15T00:01:32;52.83;45.66;60.45;;
47109;Laerm;32856;51.422;6.794;2023-02-15T00:04:00;56.66;44.73;72.31;;
47109;Laerm;32856;51.422;6.794;2023-02-15T00:06:28;53.09;46.57;58.95;;
47109;Laerm;32856;51.422;6.794;2023-02-15T00:08:56;53.34;48.07;58.31;;
47109;Laerm;32856;51.422;6.794;2023-02-15T00:11:24;55.35;45.63;72.17;;
47109;Laerm;32856;51.422;6.794;2023-02-15T00:14:20;54.92;45.77;72.74;;
47109;Laerm;32856;51.422;6.794;2023-02-15T00:16:48;53.57;48.64;60.59;;
47109;Laerm;32856;51.422;6.794;2023-02-15T00:19:17;58.38;44.65;77.92;;
47109;Laerm;32856;51.422;6.794;2023-02-15T00:21:45;50.44;45.01;55.49;;
47109;Laerm;32856;51.422;6.794;2023-02-15T00:24:14;54.13;45.48;73.24;;
47109;Laerm;32856;51.422;6.794;2023-02-15T00:26:42;52.09;47.02;55.76;;
47109;Laerm;32856;51.422;6.794;2023-02-15T00:29:10;51.43;47.59;56.42;;
47109;Laerm;32856;51.422;6.794;2023-02-15T00:31:39;52.44;45.91;58.75;;
47109;Laerm;32856;51.422;6.794;2023-02-15T00:34:07;51.62;44.65;56.58;;
47109;Laerm;32856;51.422;6.794;2023-02-15T00:36:34;50.52;45.69;55.45;;
47109;Laerm;32856;51.422;6.794;2023-02-15T00:39:02;52.81;44.97;58.38;;
47109;Laerm;32856;51.422;6.794;2023-02-15T00:41:30;50.63;43.77;55.74;;
47109;Laerm;32856;51.422;6.794;2023-02-15T00:43:58;52.20;45.36;57.13;;
47109;Laerm;32856;51.422;6.794;2023-02-15T00:46:25;50.91;45.63;55.91;;
47109;Laerm;32856;51.422;6.794;2023-02-15T00:48:54;51.61;47.02;55.21;;
47109;Laerm;32856;51.422;6.794;2023-02-15T00:51:21;53.27;45.57;58.72;;
47109;Laerm;32856;51.422;6.794;2023-02-15T00:53:49;50.18;45.42;54.44;;
47109;Laerm;32856;51.422;6.794;2023-02-15T00:56:16;51.72;45.69;57.52;;
47109;Laerm;32856;51.422;6.794;2023-02-15T00:58:44;51.82;45.36;62.05;;
47109;Laerm;32856;51.422;6.794;2023-02-15T01:01:12;48.60;44.80;54.53;;
47109;Laerm;32856;51.422;6.794;2023-02-15T01:03:40;57.69;47.30;73.99;;
47109;Laerm;32856;51.422;6.794;2023-02-15T01:06:09;50.57;43.29;55.23;;
47109;Laerm;32856;51.422;6.794;2023-02-15T01:08:37;53.51;42.22;70.86;;
47109;Laerm;32856;51.422;6.794;2023-02-15T01:11:05;51.88;45.99;56.05;;
47109;Laerm;32856;51.422;6.794;2023-02-15T01:13:33;50.76;45.39;55.29;;
47109;Laerm;32856;51.422;6.794;2023-02-15T01:16:00;52.69;46.55;68.23;;
47109;Laerm;32856;51.422;6.794;2023-02-15T01:18:28;56.65;47.91;76.29;;
47109;Laerm;32856;51.422;6.794;2023-02-15T01:20:56;50.47;45.83;55.03;;
47109;Laerm;32856;51.422;6.794;2023-02-15T01:23:25;56.47;46.69;74.82;;
47109;Laerm;32856;51.422;6.794;2023-02-15T01:25:53;50.58;45.89;56.31;;
47109;Laerm;32856;51.422;6.794;2023-02-15T01:28:20;59.41;47.42;78.86;;
47109;Laerm;32856;51.422;6.794;2023-02-15T01:30:48;49.96;44.87;54.81;;
47109;Laerm;32856;51.422;6.794;2023-02-15T01:33:15;51.39;46.28;56.27;;
47109;Laerm;32856;51.422;6.794;2023-02-15T01:35:44;49.40;43.39;53.96;;
47109;Laerm;32856;51.422;6.794;2023-02-15T01:38:12;51.92;47.26;56.27;;
47109;Laerm;32856;51.422;6.794;2023-02-15T01:40:41;50.48;45.86;55.14;;
47109;Laerm;32856;51.422;6.794;2023-02-15T01:43:09;49.86;44.31;55.40;;
47109;Laerm;32856;51.422;6.794;2023-02-15T01:45:37;50.07;46.02;54.62;;
47109;Laerm;32856;51.422;6.794;2023-02-15T01:48:05;50.47;45.17;54.74;;
47109;Laerm;32856;51.422;6.794;2023-02-15T01:50:33;58.32;46.25;76.51;;
47109;Laerm;32856;51.422;6.794;2023-02-15T01:53:03;51.40;46.23;57.95;;
47109;Laerm;32856;51.422;6.794;2023-02-15T01:55:33;51.60;47.55;58.81;;
47109;Laerm;32856;51.422;6.794;2023-02-15T01:58:02;53.61;46.33;71.64;;
47109;Laerm;32856;51.422;6.794;2023-02-15T02:00:30;54.50;47.02;62.03;;
47109;Laerm;32856;51.422;6.794;2023-02-15T02:02:57;50.49;45.45;54.41;;
47109;Laerm;32856;51.422;6.794;2023-02-15T02:05:25;50.53;45.11;55.06;;
47109;Laerm;32856;51.422;6.794;2023-02-15T02:07:53;53.82;45.36;60.80;;
47109;Laerm;32856;51.422;6.794;2023-02-15T02:10:22;53.42;48.16;60.87;;
47109;Laerm;32856;51.422;6.794;2023-02-15T02:12:50;55.78;48.36;70.56;;
47109;Laerm;32856;51.422;6.794;2023-02-15T02:15:23;55.78;49.66;67.48;;
47109;Laerm;32856;51.422;6.794;2023-02-15T02:17:59;56.32;48.05;74.00;;
47109;Laerm;32856;51.422;6.794;2023-02-15T02:20:38;53.66;48.31;60.81;;
47109;Laerm;32856;51.422;6.794;2023-02-15T02:23:15;56.42;45.72;64.67;;
47109;Laerm;32856;51.422;6.794;2023-02-15T02:26:13;54.61;46.76;61.05;;
47109;Laerm;32856;51.422;6.794;2023-02-15T02:28:56;55.25;44.90;70.93;;
47109;Laerm;32856;51.422;6.794;2023-02-15T02:31:37;56.45;47.77;70.62;;
47109;Laerm;32856;51.422;6.794;2023-02-15T02:34:09;54.92;46.20;63.94;;
47109;Laerm;32856;51.422;6.794;2023-02-15T02:36:40;52.13;43.94;59.83;;
47109;Laerm;32856;51.422;6.794;2023-02-15T02:39:12;54.36;47.04;60.27;;
47109;Laerm;32856;51.422;6.794;2023-02-15T02:41:46;54.59;50.19;62.32;;
47109;Laerm;32856;51.422;6.794;2023-02-15T02:44:18;54.02;49.94;57.68;;
47109;Laerm;32856;51.422;6.794;2023-02-15T02:46:48;57.01;50.55;74.54;;
47109;Laerm;32856;51.422;6.794;2023-02-15T02:49:28;55.59;50.04;72.69;;
47109;Laerm;32856;51.422;6.794;2023-02-15T02:51:58;53.22;46.28;71.51;;
47109;Laerm;32856;51.422;6.794;2023-02-15T02:54:25;55.73;47.61;73.21;;
47109;Laerm;32856;51.422;6.794;2023-02-15T02:56:53;56.05;44.98;74.89;;
47109;Laerm;32856;51.422;6.794;2023-02-15T02:59:24;53.98;43.77;58.78;;
47109;Laerm;32856;51.422;6.794;2023-02-15T03:01:55;54.43;50.22;58.70;;
47109;Laerm;32856;51.422;6.794;2023-02-15T03:04:26;58.33;51.43;66.03;;
47109;Laerm;32856;51.422;6.794;2023-02-15T03:06:58;59.76;50.52;80.95;;
47109;Laerm;32856;51.422;6.794;2023-02-15T03:09:27;56.20;50.21;72.58;;
47109;Laerm;32856;51.422;6.794;2023-02-15T03:12:00;55.23;48.76;60.70;;
47109;Laerm;32856;51.422;6.794;2023-02-15T03:14:29;56.69;50.25;71.68;;
47109;Laerm;32856;51.422;6.794;2023-02-15T03:16:57;58.18;50.07;74.33;;
47109;Laerm;32856;51.422;6.794;2023-02-15T03:19:26;59.63;52.51;79.42;;
47109;Laerm;32856;51.422;6.794;2023-02-15T03:21:55;57.21;51.85;72.07;;
47109;Laerm;32856;51.422;6.794;2023-02-15T03:24:32;56.32;50.08;60.34;;
47109;Laerm;32856;51.422;6.794;2023-02-15T03:27:02;56.35;51.88;69.72;;
47109;Laerm;32856;51.422;6.794;2023-02-15T03:29:31;57.63;50.10;75.39;;
47109;Laerm;32856;51.422;6.794;2023-02-15T03:31:59;55.29;50.59;59.04;;
47109;Laerm;32856;51.422;6.794;2023-02-15T03:34:27;58.50;52.13;74.01;;
47109;Laerm;32856;51.422;6.794;2023-02-15T03:36:56;55.87;50.60;72.93;;
47109;Laerm;32856;51.422;6.794;2023-02-15T03:39:26;57.73;49.55;73.38;;
47109;Laerm;32856;51.422;6.794;2023-02-15T03:41:57;56.03;52.53;64.37;;
47109;Laerm;32856;51.422;6.794;2023-02-15T03:44:27;59.06;52.15;74.96;;
47109;Laerm;32856;51.422;6.794;2023-02-15T03:46:58;64.40;54.00;82.35;;
47109;Laerm;32856;51.422;6.794;2023-02-15T03:49:27;59.11;52.21;75.49;;
47109;Laerm;32856;51.422;6.794;2023-02-15T03:51:57;57.92;53.15;72.56;;
47109;Laerm;32856;51.422;6.794;2023-02-15T03:54:26;57.56;51.92;71.42;;
47109;Laerm;32856;51.422;6.794;2023-02-15T03:57:12;57.12;51.17;62.44;;
47109;Laerm;32856;51.422;6.794;2023-02-15T03:59:57;58.29;53.19;74.33;;
47109;Laerm;32856;51.422;6.794;2023-02-15T04:02:45;56.30;53.12;59.11;;
47109;Laerm;32856;51.422;6.794;2023-02-15T04:05:19;61.31;53.92;79.47;;
47109;Laerm;32856;51.422;6.794;2023-02-15T04:07:46;59.44;55.30;70.34;;
47109;Laerm;32856;51.422;6.794;2023-02-15T04:10:14;59.36;53.71;76.57;;
47109;Laerm;32856;51.422;6.794;2023-02-15T04:13:00;61.61;52.30;75.94;;
47109;Laerm;32856;51.422;6.794;2023-02-15T04:15:28;57.30;52.88;61.06;;
47109;Laerm;32856;51.422;6.794;2023-02-15T04:18:15;61.70;55.12;77.19;;
47109;Laerm;32856;51.422;6.794;2023-02-15T04:20:43;59.92;56.01;71.73;;
47109;Laerm;32856;51.422;6.794;2023-02-15T04:23:28;61.52;56.04;75.08;;
47109;Laerm;32856;51.422;6.794;2023-02-15T04:26:13;61.90;55.65;75.10;;
47109;Laerm;32856;51.422;6.794;2023-02-15T04:28:42;60.31;55.28;73.68;;
47109;Laerm;32856;51.422;6.794;2023-02-15T04:31:09;63.17;55.19;75.26;;
47109;Laerm;32856;51.422;6.794;2023-02-15T04:33:37;57.97;54.10;61.97;;
47109;Laerm;32856;51.422;6.794;2023-02-15T04:36:04;62.50;55.60;77.44;;
47109;Laerm;32856;51.422;6.794;2023-02-15T04:38:32;61.97;54.04;75.74;;
47109;Laerm;32856;51.422;6.794;2023-02-15T04:40:59;60.87;55.75;74.98;;
47109;Laerm;32856;51.422;6.794;2023-02-15T04:43:26;64.98;55.80;80.53;;
47109;Laerm;32856;51.422;6.794;2023-02-15T04:45:55;61.53;55.55;74.84;;
47109;Laerm;32856;51.422;6.794;2023-02-15T04:48:25;62.26;55.12;76.65;;
47109;Laerm;32856;51.422;6.794;2023-02-15T04:50:52;61.45;54.61;75.77;;
47109;Laerm;32856;51.422;6.794;2023-02-15T04:53:19;63.59;55.87;77.00;;
47109;Laerm;32856;51.422;6.794;2023-02-15T04:55:47;64.75;55.22;78.98;;
47109;Laerm;32856;51.422;6.794;2023-02-15T04:58:14;62.14;55.62;77.51;;
47109;Laerm;32856;51.422;6.794;2023-02-15T05:00:42;61.05;55.00;76.81;;
47109;Laerm;32856;51.422;6.794;2023-02-15T05:03:11;60.06;55.24;73.67;;
47109;Laerm;32856;51.422;6.794;2023-02-15T05:05:38;62.76;55.59;80.45;;
47109;Laerm;32856;51.422;6.794;2023-02-15T05:08:06;62.10;56.07;78.71;;
47109;Laerm;32856;51.422;6.794;2023-02-15T05:10:33;64.01;56.33;77.87;;
47109;Laerm;32856;51.422;6.794;2023-02-15T05:13:01;62.03;55.54;76.30;;
47109;Laerm;32856;51.422;6.794;2023-02-15T05:15:28;63.28;56.62;78.82;;
47109;Laerm;32856;51.422;6.794;2023-02-15T05:17:56;63.69;56.60;77.27;;
47109;Laerm;32856;51.422;6.794;2023-02-15T05:20:24;63.27;56.21;78.73;;
47109;Laerm;32856;51.422;6.794;2023-02-15T05:22:52;60.86;55.76;75.70;;
47109;Laerm;32856;51.422;6.794;2023-02-15T05:25:20;64.56;55.95;80.23;;
47109;Laerm;32856;51.422;6.794;2023-02-15T05:28:13;62.75;55.60;75.45;;
47109;Laerm;32856;51.422;6.794;2023-02-15T05:30:46;65.31;55.46;76.68;;
47109;Laerm;32856;51.422;6.794;2023-02-15T05:33:14;64.17;55.45;79.68;;
47109;Laerm;32856;51.422;6.794;2023-02-15T05:35:43;62.53;55.77;76.27;;
47109;Laerm;32856;51.422;6.794;2023-02-15T05:38:11;65.13;56.55;78.42;;
47109;Laerm;32856;51.422;6.794;2023-02-15T05:40:38;63.96;57.47;75.03;;
47109;Laerm;32856;51.422;6.794;2023-02-15T05:43:05;63.91;57.08;76.12;;
47109;Laerm;32856;51.422;6.794;2023-02-15T05:45:33;64.88;56.37;76.55;;
47109;Laerm;32856;51.422;6.794;2023-02-15T05:48:00;62.92;55.20;75.21;;
47109;Laerm;32856;51.422;6.794;2023-02-15T05:50:27;65.81;56.13;81.29;;
47109;Laerm;32856;51.422;6.794;2023-02-15T05:52:56;64.82;55.46;77.46;;
47109;Laerm;32856;51.422;6.794;2023-02-15T05:55:23;66.93;56.86;81.76;;
47109;Laerm;32856;51.422;6.794;2023-02-15T05:57:51;65.81;56.74;83.55;;
47109;Laerm;32856;51.422;6.794;2023-02-15T06:00:18;65.54;56.23;78.50;;
47109;Laerm;32856;51.422;6.794;2023-02-15T06:02:46;65.37;56.58;77.37;;
47109;Laerm;32856;51.422;6.794;2023-02-15T06:05:13;63.14;56.19;75.16;;
47109;Laerm;32856;51.422;6.794;2023-02-15T06:07:42;66.54;57.39;81.46;;
47109;Laerm;32856;51.422;6.794;2023-02-15T06:10:11;65.91;57.10;79.16;;
47109;Laerm;32856;51.422;6.794;2023-02-15T06:12:39;65.56;57.61;76.55;;
47109;Laerm;32856;51.422;6.794;2023-02-15T06:15:06;64.89;56.04;77.01;;
47109;Laerm;32856;51.422;6.794;2023-02-15T06:17:34;64.46;56.66;75.45;;
47109;Laerm;32856;51.422;6.794;2023-02-15T06:20:02;67.37;56.86;85.85;;
47109;Laerm;32856;51.422;6.794;2023-02-15T06:22:29;65.82;57.36;77.53;;
47109;Laerm;32856;51.422;6.794;2023-02-15T06:24:57;65.74;56.07;79.09;;
47109;Laerm;32856;51.422;6.794;2023-02-15T06:27:26;64.61;56.83;74.61;;
47109;Laerm;32856;51.422;6.794;2023-02-15T06:29:53;66.37;56.97;76.74;;
47109;Laerm;32856;51.422;6.794;2023-02-15T06:32:20;66.12;57.10;78.20;;
47109;Laerm;32856;51.422;6.794;2023-02-15T06:34:48;66.20;57.69;80.22;;
47109;Laerm;32856;51.422;6.794;2023-02-15T06:37:15;66.57;56.42;78.00;;
47109;Laerm;32856;51.422;6.794;2023-02-15T06:39:43;68.53;57.57;79.21;;
47109;Laerm;32856;51.422;6.794;2023-02-15T06:42:10;66.18;57.02;77.63;;
47109;Laerm;32856;51.422;6.794;2023-02-15T06:44:39;65.73;56.43;76.83;;
47109;Laerm;32856;51.422;6.794;2023-02-15T06:47:07;67.55;56.58;78.47;;
47109;Laerm;32856;51.422;6.794;2023-02-15T06:49:34;65.58;57.27;77.71;;
47109;Laerm;32856;51.422;6.794;2023-02-15T06:52:02;65.36;57.17;75.86;;
47109;Laerm;32856;51.422;6.794;2023-02-15T06:54:29;67.71;57.27;84.77;;
47109;Laerm;32856;51.422;6.794;2023-02-15T06:56:57;66.39;55.76;78.13;;
47109;Laerm;32856;51.422;6.794;2023-02-15T06:59:24;64.85;54.83;79.36;;
47109;Laerm;32856;51.422;6.794;2023-02-15T07:01:53;67.46;56.30;78.20;;
47109;Laerm;32856;51.422;6.794;2023-02-15T07:04:20;65.17;55.77;77.14;;
47109;Laerm;32856;51.422;6.794;2023-02-15T07:06:48;69.80;56.88;79.41;;
47109;Laerm;32856;51.422;6.794;2023-02-15T07:09:18;64.87;56.32;80.04;;
47109;Laerm;32856;51.422;6.794;2023-02-15T07:11:46;66.64;57.15;77.43;;
47109;Laerm;32856;51.422;6.794;2023-02-15T07:14:31;65.73;55.91;78.44;;
47109;Laerm;32856;51.422;6.794;2023-02-15T07:17:00;65.59;56.74;76.40;;
47109;Laerm;32856;51.422;6.794;2023-02-15T07:19:27;65.17;57.20;74.84;;
47109;Laerm;32856;51.422;6.794;2023-02-15T07:21:55;64.93;56.80;78.39;;
47109;Laerm;32856;51.422;6.794;2023-02-15T07:24:22;66.72;56.06;79.43;;
47109;Laerm;32856;51.422;6.794;2023-02-15T07:26:50;64.15;55.51;78.74;;
47109;Laerm;32856;51.422;6.794;2023-02-15T07:29:17;66.46;57.07;81.12;;
47109;Laerm;32856;51.422;6.794;2023-02-15T07:31:45;66.62;56.15;82.43;;
47109;Laerm;32856;51.422;6.794;2023-02-15T07:34:14;64.39;56.03;75.67;;
47109;Laerm;32856;51.422;6.794;2023-02-15T07:36:42;64.20;56.59;74.04;;
47109;Laerm;32856;51.422;6.794;2023-02-15T07:39:10;65.92;56.08;79.34;;
47109;Laerm;32856;51.422;6.794;2023-02-15T07:41:37;65.46;56.64;75.54;;
47109;Laerm;32856;51.422;6.794;2023-02-15T07:44:05;64.54;56.47;75.85;;
47109;Laerm;32856;51.422;6.794;2023-02-15T07:46:32;65.68;56.49;78.88;;
47109;Laerm;32856;51.422;6.794;2023-02-15T07:48:59;67.38;56.42;87.21;;
47109;Laerm;32856;51.422;6.794;2023-02-15T07:51:28;65.31;56.18;77.17;;
47109;Laerm;32856;51.422;6.794;2023-02-15T07:53:56;64.51;56.18;75.52;;
47109;Laerm;32856;51.422;6.794;2023-02-15T07:56:23;63.80;55.81;80.64;;
47109;Laerm;32856;51.422;6.794;2023-02-15T07:58:51;62.61;54.84;74.46;;
47109;Laerm;32856;51.422;6.794;2023-02-15T08:01:18;65.14;55.92;76.46;;
47109;Laerm;32856;51.422;6.794;2023-02-15T08:03:46;65.52;54.64;81.60;;
47109;Laerm;32856;51.422;6.794;2023-02-15T08:06:14;66.61;55.49;79.20;;
47109;Laerm;32856;51.422;6.794;2023-02-15T08:08:43;63.32;54.77;75.91;;
47109;Laerm;32856;51.422;6.794;2023-02-15T08:11:15;64.99;55.43;78.26;;
47109;Laerm;32856;51.422;6.794;2023-02-15T08:14:03;65.00;55.18;78.01;;
47109;Laerm;32856;51.422;6.794;2023-02-15T08:16:32;64.14;54.63;78.48;;
47109;Laerm;32856;51.422;6.794;2023-02-15T08:19:01;65.72;55.46;77.89;;
47109;Laerm;32856;51.422;6.794;2023-02-15T08:21:29;62.97;53.97;76.42;;
47109;Laerm;32856;51.422;6.794;2023-02-15T08:23:58;65.36;55.97;82.74;;
47109;Laerm;32856;51.422;6.794;2023-02-15T08:26:26;64.84;55.10;76.76;;
47109;Laerm;32856;51.422;6.794;2023-02-15T08:28:54;64.55;53.85;75.77;;
47109;Laerm;32856;51.422;6.794;2023-02-15T08:31:22;64.98;55.17;77.66;;
47109;Laerm;32856;51.422;6.794;2023-02-15T08:33:50;65.35;54.03;76.57;;
47109;Laerm;32856;51.422;6.794;2023-02-15T08:36:19;64.54;55.23;79.33;;
47109;Laerm;32856;51.422;6.794;2023-02-15T08:38:47;66.54;55.89;77.25;;
47109;Laerm;32856;51.422;6.794;2023-02-15T08:41:16;62.02;53.93;73.30;;
47109;Laerm;32856;51.422;6.794;2023-02-15T08:43:45;63.40;53.86;90.57;;
47109;Laerm;32856;51.422;6.794;2023-02-15T08:46:13;65.06;55.45;76.10;;
47109;Laerm;32856;51.422;6.794;2023-02-15T08:48:41;63.67;54.46;75.36;;
47109;Laerm;32856;51.422;6.794;2023-02-15T08:51:10;65.21;54.45;78.43;;
47109;Laerm;32856;51.422;6.794;2023-02-15T08:53:38;65.24;55.16;80.81;;
47109;Laerm;32856;51.422;6.794;2023-02-15T08:56:06;64.66;53.61;74.69;;
47109;Laerm;32856;51.422;6.794;2023-02-15T08:58:36;64.24;54.10;75.90;;
47109;Laerm;32856;51.422;6.794;2023-02-15T09:01:08;63.77;53.03;78.55;;
47109;Laerm;32856;51.422;6.794;2023-02-15T09:03:35;64.78;54.36;76.28;;
47109;Laerm;32856;51.422;6.794;2023-02-15T09:06:03;65.53;54.56;79.38;;
47109;Laerm;32856;51.422;6.794;2023-02-15T09:08:31;65.00;53.18;79.26;;
47109;Laerm;32856;51.422;6.794;2023-02-15T09:11:08;66.77;56.10;79.45;;
47109;Laerm;32856;51.422;6.794;2023-02-15T09:13:37;63.12;54.50;75.04;;
47109;Laerm;32856;51.422;6.794;2023-02-15T09:16:06;62.54;52.38;79.23;;
47109;Laerm;32856;51.422;6.794;2023-02-15T09:18:35;65.53;52.76;79.21;;
47109;Laerm;32856;51.422;6.794;2023-02-15T09:21:04;67.14;54.37;81.50;;
47109;Laerm;32856;51.422;6.794;2023-02-15T09:23:31;65.78;54.12;81.51;;
47109;Laerm;32856;51.422;6.794;2023-02-15T09:26:01;65.43;55.99;81.64;;
47109;Laerm;32856;51.422;6.794;2023-02-15T09:28:29;62.65;54.38;76.20;;
47109;Laerm;32856;51.422;6.794;2023-02-15T09:30:58;63.45;54.37;75.98;;
47109;Laerm;32856;51.422;6.794;2023-02-15T09:33:32;64.73;51.95;79.04;;
47109;Laerm;32856;51.422;6.794;2023-02-15T09:36:00;63.46;53.89;75.23;;
47109;Laerm;32856;51.422;6.794;2023-02-15T09:38:27;66.48;54.42;79.46;;
47109;Laerm;32856;51.422;6.794;2023-02-15T09:40:56;62.98;53.65;76.67;;
47109;Laerm;32856;51.422;6.794;2023-02-15T09:43:32;65.43;53.82;77.11;;
47109;Laerm;32856;51.422;6.794;2023-02-15T09:46:10;63.51;53.78;74.85;;
47109;Laerm;32856;51.422;6.794;2023-02-15T09:48:44;64.65;53.26;76.29;;
47109;Laerm;32856;51.422;6.794;2023-02-15T09:51:19;63.85;53.44;76.62;;
47109;Laerm;32856;51.422;6.794;2023-02-15T09:53:56;67.36;53.43;83.65;;
47109;Laerm;32856;51.422;6.794;2023-02-15T09:56:30;63.15;54.19;75.52;;
47109;Laerm;32856;51.422;6.794;2023-02-15T09:58:59;64.45;52.94;77.56;;
47109;Laerm;32856;51.422;6.794;2023-02-15T10:01:31;64.17;53.06;78.03;;
47109;Laerm;32856;51.422;6.794;2023-02-15T10:04:09;62.84;53.34;74.77;;
47109;Laerm;32856;51.422;6.794;2023-02-15T10:06:43;65.16;53.74;76.68;;
47109;Laerm;32856;51.422;6.794;2023-02-15T10:09:27;64.19;53.33;76.59;;
47109;Laerm;32856;51.422;6.794;2023-02-15T10:12:03;64.84;52.54;76.26;;
47109;Laerm;32856;51.422;6.794;2023-02-15T10:14:37;63.87;53.57;76.75;;
47109;Laerm;32856;51.422;6.794;2023-02-15T10:17:16;64.61;54.18;78.27;;
47109;Laerm;32856;51.422;6.794;2023-02-15T10:19:49;63.81;52.64;81.02;;
47109;Laerm;32856;51.422;6.794;2023-02-15T10:22:23;65.55;53.40;81.75;;
47109;Laerm;32856;51.422;6.794;2023-02-15T10:24:59;65.57;53.48;77.63;;
47109;Laerm;32856;51.422;6.794;2023-02-15T10:27:33;63.86;52.76;77.48;;
47109;Laerm;32856;51.422;6.794;2023-02-15T10:30:07;63.97;51.82;76.10;;
47109;Laerm;32856;51.422;6.794;2023-02-15T10:32:38;66.14;54.23;80.60;;
47109;Laerm;32856;51.422;6.794;2023-02-15T10:35:10;60.19;52.13;76.47;;
47109;Laerm;32856;51.422;6.794;2023-02-15T10:37:49;65.26;54.15;79.42;;
47109;Laerm;32856;51.422;6.794;2023-02-15T10:40:22;63.79;51.08;75.05;;
47109;Laerm;32856;51.422;6.794;2023-02-15T10:42:56;62.66;51.82;75.22;;
47109;Laerm;32856;51.422;6.794;2023-02-15T10:45:29;62.12;52.29;75.83;;
47109;Laerm;32856;51.422;6.794;2023-02-15T10:48:05;64.53;51.22;78.32;;
47109;Laerm;32856;51.422;6.794;2023-02-15T10:50:41;63.48;52.79;76.69;;
47109;Laerm;32856;51.422;6.794;2023-02-15T10:53:19;63.70;51.36;75.00;;
47109;Laerm;32856;51.422;6.794;2023-02-15T10:55:52;63.89;51.61;82.47;;
47109;Laerm;32856;51.422;6.794;2023-02-15T10:58:26;63.02;53.26;74.14;;
47109;Laerm;32856;51.422;6.794;2023-02-15T11:00:58;63.99;52.46;80.02;;
47109;Laerm;32856;51.422;6.794;2023-02-15T11:03:35;64.48;52.99;76.48;;
47109;Laerm;32856;51.422;6.794;2023-02-15T11:06:05;65.11;53.48;77.20;;
47109;Laerm;32856;51.422;6.794;2023-02-15T11:08:39;64.56;51.58;75.71;;
47109;Laerm;32856;51.422;6.794;2023-02-15T11:11:10;65.66;51.91;76.06;;
47109;Laerm;32856;51.422;6.794;2023-02-15T11:13:39;62.82;51.17;74.73;;
47109;Laerm;32856;51.422;6.794;2023-02-15T11:16:10;63.72;52.60;74.91;;
47109;Laerm;32856;51.422;6.794;2023-02-15T11:21:20;71.89;51.94;98.21;;
47109;Laerm;32856;51.422;6.794;2023-02-15T11:23:49;64.05;51.35;76.39;;
47109;Laerm;32856;51.422;6.794;2023-02-15T11:26:19;66.10;51.95;77.10;;
47109;Laerm;32856;51.422;6.794;2023-02-15T11:28:49;65.19;53.67;76.21;;
47109;Laerm;32856;51.422;6.794;2023-02-15T11:31:20;66.15;52.02;82.85;;
47109;Laerm;32856;51.422;6.794;2023-02-15T11:33:49;68.96;51.47;82.35;;
47109;Laerm;32856;51.422;6.794;2023-02-15T11:36:20;65.87;53.77;78.49;;
47109;Laerm;32856;51.422;6.794;2023-02-15T11:38:52;66.27;54.57;77.41;;
47109;Laerm;32856;51.422;6.794;2023-02-15T11:41:24;66.01;52.24;77.84;;
47109;Laerm;32856;51.422;6.794;2023-02-15T11:43:56;62.99;50.59;74.11;;
47109;Laerm;32856;51.422;6.794;2023-02-15T11:46:25;61.07;51.04;74.90;;
47109;Laerm;32856;51.422;6.794;2023-02-15T11:48:53;65.16;54.55;76.78;;
47109;Laerm;32856;51.422;6.794;2023-02-15T11:51:22;65.30;54.12;76.28;;
47109;Laerm;32856;51.422;6.794;2023-02-15T11:53:49;63.16;51.19;76.91;;
47109;Laerm;32856;51.422;6.794;2023-02-15T11:56:18;64.25;52.96;81.59;;
47109;Laerm;32856;51.422;6.794;2023-02-15T11:58:47;64.20;52.37;77.88;;
47109;Laerm;32856;51.422;6.794;2023-02-15T12:01:19;63.00;51.24;76.66;;
47109;Laerm;32856;51.422;6.794;2023-02-15T12:03:49;63.85;51.84;76.81;;
47109;Laerm;32856;51.422;6.794;2023-02-15T12:06:20;64.08;54.82;73.69;;
47109;Laerm;32856;51.422;6.794;2023-02-15T12:08:52;63.15;51.94;79.86;;
47109;Laerm;32856;51.422;6.794;2023-02-15T12:11:22;63.37;53.50;75.61;;
47109;Laerm;32856;51.422;6.794;2023-02-15T12:13:55;62.41;51.83;75.80;;
47109;Laerm;32856;51.422;6.794;2023-02-15T12:16:23;64.89;51.91;74.72;;
47109;Laerm;32856;51.422;6.794;2023-02-15T12:18:52;65.74;52.47;79.40;;
47109;Laerm;32856;51.422;6.794;2023-02-15T12:21:27;63.61;52.23;76.19;;
47109;Laerm;32856;51.422;6.794;2023-02-15T12:23:58;66.00;50.74;81.81;;
47109;Laerm;32856;51.422;6.794;2023-02-15T12:26:28;63.34;52.45;75.11;;
47109;Laerm;32856;51.422;6.794;2023-02-15T12:28:56;65.13;52.22;76.94;;
47109;Laerm;32856;51.422;6.794;2023-02-15T12:31:28;62.69;51.73;75.70;;
47109;Laerm;32856;51.422;6.794;2023-02-15T12:33:59;63.25;52.66;75.40;;
47109;Laerm;32856;51.422;6.794;2023-02-15T12:36:29;64.52;52.05;76.73;;
47109;Laerm;32856;51.422;6.794;2023-02-15T12:39:05;65.31;52.88;77.03;;
47109;Laerm;32856;51.422;6.794;2023-02-15T12:41:43;66.64;51.20;79.94;;
47109;Laerm;32856;51.422;6.794;2023-02-15T12:44:15;63.17;50.39;75.17;;
47109;Laerm;32856;51.422;6.794;2023-02-15T12:46:49;64.89;52.81;75.70;;
47109;Laerm;32856;51.422;6.794;2023-02-15T12:49:22;64.10;52.91;75.17;;
47109;Laerm;32856;51.422;6.794;2023-02-15T12:51:50;65.87;52.30;80.96;;
47109;Laerm;32856;51.422;6.794;2023-02-15T12:54:26;64.67;51.62;77.44;;
47109;Laerm;32856;51.422;6.794;2023-02-15T12:56:55;63.74;52.21;76.22;;
47109;Laerm;32856;51.422;6.794;2023-02-15T12:59:24;63.30;51.04;76.57;;
47109;Laerm;32856;51.422;6.794;2023-02-15T13:01:52;62.91;50.95;77.39;;
47109;Laerm;32856;51.422;6.794;2023-02-15T13:04:22;65.37;51.93;80.20;;
47109;Laerm;32856;51.422;6.794;2023-02-15T13:06:51;65.31;53.30;75.71;;
47109;Laerm;32856;51.422;6.794;2023-02-15T13:09:19;64.61;51.51;77.73;;
47109;Laerm;32856;51.422;6.794;2023-02-15T13:11:48;63.73;52.28;74.84;;
47109;Laerm;32856;51.422;6.794;2023-02-15T13:14:17;63.76;50.83;74.28;;
47109;Laerm;32856;51.422;6.794;2023-02-15T13:16:46;64.41;51.82;76.33;;
47109;Laerm;32856;51.422;6.794;2023-02-15T13:19:14;66.70;50.65;80.18;;
47109;Laerm;32856;51.422;6.794;2023-02-15T13:21:44;66.62;51.64;82.19;;
47109;Laerm;32856;51.422;6.794;2023-02-15T13:24:15;65.87;52.64;78.04;;
47109;Laerm;32856;51.422;6.794;2023-02-15T13:26:44;62.38;52.15;75.18;;
47109;Laerm;32856;51.422;6.794;2023-02-15T13:29:17;65.85;53.08;82.45;;
47109;Laerm;32856;51.422;6.794;2023-02-15T13:31:45;66.00;53.36;79.74;;
47109;Laerm;32856;51.422;6.794;2023-02-15T13:34:14;66.06;51.95;81.00;;
47109;Laerm;32856;51.422;6.794;2023-02-15T13:36:47;65.73;52.31;76.70;;
47109;Laerm;32856;51.422;6.794;2023-02-15T13:39:19;65.73;51.42;80.51;;
47109;Laerm;32856;51.422;6.794;2023-02-15T13:41:55;65.38;51.31;76.66;;
47109;Laerm;32856;51.422;6.794;2023-02-15T13:44:30;65.65;50.93;74.81;;
47109;Laerm;32856;51.422;6.794;2023-02-15T13:47:02;64.34;52.06;80.06;;
47109;Laerm;32856;51.422;6.794;2023-02-15T13:49:39;66.96;52.72;78.36;;
47109;Laerm;32856;51.422;6.794;2023-02-15T13:52:13;63.97;51.01;75.99;;
47109;Laerm;32856;51.422;6.794;2023-02-15T13:54:51;63.81;51.75;77.39;;
47109;Laerm;32856;51.422;6.794;2023-02-15T13:57:27;63.09;52.06;74.04;;
47109;Laerm;32856;51.422;6.794;2023-02-15T14:00:03;63.70;50.83;74.30;;
47109;Laerm;32856;51.422;6.794;2023-02-15T14:02:38;66.40;50.32;76.17;;
47109;Laerm;32856;51.422;6.794;2023-02-15T14:07:59;65.86;52.36;78.41;;